Time;durP1;ratioP1;P1;durP2;ratioP2;P2;SDS_P1;SDS_P2;PMS_P1;PMS_P2;Temp;Humidity;BMP_temperature;BMP_pressure;BME280_temperature;BME280_humidity;BME280_pressure;Samples;Min_cycle;Max_cycle;Signal;HPM_P1;HPM_P2
2022/08/04 00:02:10;;;;;;;2.50;2.30;;;29.40;67.40;;;;;;5056442;28;20476;-68
2022/08/04 00:04:45;;;;;;;2.27;2.07;;;29.40;65.70;;;;;;5056085;28;20806;-67
2022/08/04 00:07:24;;;;;;;4.90;2.70;;;29.30;66.40;;;;;;5055754;28;20473;-70
2022/08/04 00:10:19;;;;;;;2.77;2.57;;;29.00;66.50;;;;;;5054400;28;20460;-68
2022/08/04 00:12:52;;;;;;;2.80;2.60;;;28.70;66.40;;;;;;5053121;28;20461;-69
2022/08/04 00:15:26;;;;;;;3.47;3.17;;;28.60;67.80;;;;;;5055185;28;20473;-69
2022/08/04 00:18:00;;;;;;;3.03;2.37;;;28.80;68.60;;;;;;5055074;28;20469;-68
2022/08/04 00:20:33;;;;;;;2.63;2.43;;;28.90;67.90;;;;;;5057588;28;20465;-69
2022/08/04 00:23:05;;;;;;;2.17;2.00;;;28.60;66.60;;;;;;5056156;28;20967;-69
2022/08/04 00:25:41;;;;;;;3.07;2.70;;;28.60;67.50;;;;;;5059493;28;20476;-70
2022/08/04 00:28:12;;;;;;;2.50;2.13;;;28.40;67.00;;;;;;5065229;28;20460;-71
2022/08/04 00:30:43;;;;;;;2.77;2.57;;;28.30;68.60;;;;;;5060497;28;20465;-69
2022/08/04 00:33:19;;;;;;;2.70;2.50;;;28.20;68.20;;;;;;5068140;28;20467;-68
2022/08/04 00:35:51;;;;;;;3.60;2.27;;;28.00;68.60;;;;;;5049508;28;20436;-68
2022/08/04 00:38:22;;;;;;;3.03;2.50;;;28.10;69.20;;;;;;5076200;28;20459;-71
2022/08/04 00:41:04;;;;;;;3.40;3.10;;;28.10;69.20;;;;;;5078063;28;20466;-68
2022/08/04 00:43:38;;;;;;;3.73;2.60;;;27.90;68.50;;;;;;5082940;28;20827;-69
2022/08/04 00:46:36;;;;;;;2.50;2.30;;;27.90;69.00;;;;;;5064751;28;20506;-68
2022/08/04 00:49:42;;;;;;;2.50;2.00;;;27.60;68.80;;;;;;5071008;28;20476;-70
2022/08/04 00:52:26;;;;;;;2.40;2.30;;;27.40;68.90;;;;;;5054724;28;20478;-70
2022/08/04 00:55:17;;;;;;;2.80;2.60;;;27.20;70.00;;;;;;5065704;28;20468;-70
2022/08/04 00:58:21;;;;;;;3.07;2.77;;;27.10;70.50;;;;;;5068386;28;20490;-69
2022/08/04 01:01:01;;;;;;;2.93;2.63;;;27.00;70.50;;;;;;5079247;28;20460;-71
2022/08/04 01:03:51;;;;;;;2.50;2.30;;;27.00;70.40;;;;;;5055772;28;20461;-70
2022/08/04 01:06:35;;;;;;;2.60;2.40;;;27.10;70.70;;;;;;5063717;28;20498;-71
2022/08/04 01:09:18;;;;;;;3.00;2.20;;;27.00;71.40;;;;;;5069033;28;20455;-70
2022/08/04 01:12:08;;;;;;;2.87;2.30;;;27.10;70.90;;;;;;5065288;28;20780;-69
2022/08/04 01:15:04;;;;;;;2.50;2.30;;;27.00;70.80;;;;;;5063510;28;20468;-71
2022/08/04 01:17:57;;;;;;;6.17;5.23;;;26.90;70.70;;;;;;5061490;28;20475;-68
2022/08/04 01:20:33;;;;;;;4.23;3.83;;;27.00;71.50;;;;;;5060748;28;20462;-69
2022/08/04 01:24:01;;;;;;;3.10;2.80;;;27.00;70.70;;;;;;5080054;28;20461;-71
2022/08/04 01:26:49;;;;;;;3.10;2.83;;;27.00;70.80;;;;;;5036151;28;20495;-70
2022/08/04 01:29:35;;;;;;;3.00;2.70;;;26.90;71.70;;;;;;5082978;28;20567;-71
2022/08/04 01:32:21;;;;;;;2.90;2.60;;;27.00;71.70;;;;;;5072233;28;20526;-71
2022/08/04 01:35:01;;;;;;;3.50;2.73;;;27.00;71.20;;;;;;5062831;28;20493;-70
2022/08/04 01:37:49;;;;;;;2.40;2.20;;;26.90;71.70;;;;;;5063363;28;20456;-70
2022/08/04 01:40:22;;;;;;;2.17;1.97;;;26.90;71.70;;;;;;5061286;28;20474;-71
2022/08/04 01:42:55;;;;;;;2.47;2.27;;;26.80;71.70;;;;;;5063681;28;20458;-70
2022/08/04 01:45:28;;;;;;;2.30;2.10;;;26.70;71.90;;;;;;5067596;28;20585;-70
2022/08/04 01:47:59;;;;;;;3.43;2.40;;;26.30;72.90;;;;;;5063527;28;20458;-70
2022/08/04 01:50:36;;;;;;;2.90;2.30;;;26.30;74.30;;;;;;5067677;28;20469;-71
2022/08/04 01:53:08;;;;;;;2.53;2.33;;;26.30;74.10;;;;;;5064192;28;20446;-70
2022/08/04 01:55:40;;;;;;;3.10;2.37;;;26.30;73.20;;;;;;5066170;28;20470;-71
2022/08/04 01:58:25;;;;;;;1.70;1.60;;;26.30;74.60;;;;;;5066322;28;20492;-72
2022/08/04 02:01:04;;;;;;;2.30;1.97;;;26.30;73.70;;;;;;5061831;28;20453;-70
2022/08/04 02:03:39;;;;;;;2.63;2.43;;;26.30;74.00;;;;;;5065840;28;20548;-71
2022/08/04 02:06:33;;;;;;;2.37;2.17;;;26.30;74.00;;;;;;5048546;28;20470;-71
2022/08/04 02:09:23;;;;;;;2.27;2.07;;;26.20;74.00;;;;;;5082388;28;20933;-71
2022/08/04 02:12:05;;;;;;;2.33;2.13;;;26.10;74.20;;;;;;5066584;28;20466;-70
2022/08/04 02:14:53;;;;;;;2.43;2.03;;;25.90;74.70;;;;;;5067072;28;20854;-70
2022/08/04 02:17:30;;;;;;;3.00;2.17;;;25.60;75.40;;;;;;5074594;28;20457;-71
2022/08/04 02:20:08;;;;;;;2.40;1.80;;;25.50;75.90;;;;;;5068949;28;20470;-72
2022/08/04 02:22:47;;;;;;;2.87;2.20;;;25.40;76.40;;;;;;5061971;28;20460;-72
2022/08/04 02:25:25;;;;;;;2.60;2.23;;;25.20;77.30;;;;;;5057858;28;20476;-72
2022/08/04 02:28:17;;;;;;;2.10;1.87;;;25.00;77.40;;;;;;5060598;28;20431;-72
2022/08/04 02:30:58;;;;;;;2.47;1.80;;;24.80;77.50;;;;;;5076561;28;20453;-70
2022/08/04 02:33:36;;;;;;;2.40;2.20;;;24.70;77.90;;;;;;5063842;28;20467;-70
2022/08/04 02:36:10;;;;;;;3.37;1.97;;;24.60;78.70;;;;;;5069625;28;20486;-69
2022/08/04 02:38:55;;;;;;;2.53;2.20;;;24.50;78.70;;;;;;5072410;28;20451;-69
2022/08/04 02:41:29;;;;;;;2.50;2.00;;;24.40;79.50;;;;;;5059284;28;20452;-70
2022/08/04 02:44:01;;;;;;;2.47;2.13;;;24.30;80.30;;;;;;5063411;28;20444;-69
2022/08/04 02:46:33;;;;;;;2.60;1.83;;;24.20;79.70;;;;;;5063019;28;20488;-68
2022/08/04 02:49:08;;;;;;;2.27;2.07;;;24.00;81.30;;;;;;5055618;28;20468;-69
2022/08/04 02:51:41;;;;;;;2.07;1.70;;;23.90;82.40;;;;;;5057193;28;20462;-69
2022/08/04 02:54:12;;;;;;;2.17;1.97;;;23.80;81.70;;;;;;5078644;28;20468;-70
2022/08/04 02:56:45;;;;;;;2.17;1.70;;;23.70;82.80;;;;;;5061912;28;20452;-71
2022/08/04 02:59:24;;;;;;;2.13;1.83;;;23.60;83.10;;;;;;5081186;28;20467;-70
2022/08/04 03:01:57;;;;;;;3.73;2.20;;;23.50;82.80;;;;;;5082574;28;20788;-72
2022/08/04 03:04:43;;;;;;;2.43;1.73;;;23.50;83.10;;;;;;5071002;28;20930;-71
2022/08/04 03:07:36;;;;;;;2.10;1.83;;;23.30;84.20;;;;;;5060578;28;20973;-70
2022/08/04 03:10:32;;;;;;;2.00;1.87;;;23.30;84.10;;;;;;5073208;28;20822;-69
2022/08/04 03:13:38;;;;;;;1.60;1.50;;;23.10;85.20;;;;;;5071698;28;20526;-71
2022/08/04 03:16:51;;;;;;;2.47;2.13;;;23.00;85.60;;;;;;5055245;28;20460;-72
2022/08/04 03:19:56;;;;;;;2.80;1.70;;;23.00;86.20;;;;;;5071574;28;20463;-72
2022/08/04 03:23:20;;;;;;;3.00;2.53;;;22.90;86.10;;;;;;5063344;28;20838;-70
2022/08/04 03:26:27;;;;;;;1.90;1.40;;;22.60;86.60;;;;;;5062487;28;20549;-68
2022/08/04 03:29:33;;;;;;;1.87;1.70;;;22.50;87.40;;;;;;5056481;28;20467;-70
2022/08/04 03:32:49;;;;;;;2.33;2.07;;;22.10;88.50;;;;;;5063871;28;20460;-68
2022/08/04 03:36:07;;;;;;;2.00;1.63;;;21.90;89.50;;;;;;5070121;28;20447;-67
2022/08/04 03:39:12;;;;;;;2.60;1.60;;;21.70;90.00;;;;;;5062069;28;20475;-67
2022/08/04 03:42:28;;;;;;;3.47;1.87;;;21.60;90.40;;;;;;5047164;28;20548;-66
2022/08/04 03:45:39;;;;;;;1.87;1.43;;;21.40;90.60;;;;;;5003931;28;20452;-67
2022/08/04 03:48:40;;;;;;;2.60;2.13;;;21.30;91.20;;;;;;5019582;28;20450;-66
2022/08/04 03:55:11;;;;;;;2.40;2.20;;;20.90;92.50;;;;;;5017338;28;20593;-67
2022/08/04 03:58:31;;;;;;;2.50;1.67;;;20.80;92.80;;;;;;4957798;29;20484;-67
2022/08/04 04:01:13;;;;;;;2.40;2.20;;;20.70;93.10;;;;;;4918680;29;20553;-67
2022/08/04 04:04:25;;;;;;;2.17;1.80;;;20.50;93.70;;;;;;4916847;29;20553;-68
2022/08/04 04:07:29;;;;;;;1.90;1.80;;;20.30;94.30;;;;;;4919813;29;20513;-67
2022/08/04 04:10:31;;;;;;;1.50;1.40;;;20.30;94.80;;;;;;4921878;29;20666;-67
2022/08/04 04:13:30;;;;;;;2.80;1.80;;;20.20;95.30;;;;;;4914838;29;20550;-68
2022/08/04 04:16:26;;;;;;;2.00;1.80;;;20.00;96.10;;;;;;4922680;29;20468;-66
2022/08/04 04:19:37;;;;;;;2.80;1.67;;;20.00;96.50;;;;;;4925434;29;20479;-64
2022/08/04 04:22:26;;;;;;;1.70;1.57;;;19.80;97.30;;;;;;4921665;29;20437;-64
2022/08/04 04:25:13;;;;;;;2.10;1.70;;;19.80;97.90;;;;;;4922765;29;20437;-67
2022/08/04 04:28:02;;;;;;;2.10;1.60;;;19.80;98.20;;;;;;4920372;29;20468;-67
2022/08/04 04:31:03;;;;;;;2.70;2.23;;;19.70;98.50;;;;;;4925247;29;20441;-67
2022/08/04 04:33:44;;;;;;;3.30;1.90;;;19.70;98.80;;;;;;4957900;28;20455;-67
2022/08/04 04:36:26;;;;;;;2.13;1.67;;;19.60;99.00;;;;;;5059029;28;20454;-67
2022/08/04 04:39:14;;;;;;;1.20;1.10;;;19.50;99.70;;;;;;5065431;28;20929;-69
2022/08/04 04:42:14;;;;;;;1.50;1.40;;;19.40;99.90;;;;;;5065405;28;20430;-68
2022/08/04 04:45:06;;;;;;;1.40;1.20;;;19.30;99.90;;;;;;5078226;28;20802;-69
2022/08/04 04:47:50;;;;;;;2.40;1.83;;;19.20;99.90;;;;;;5073915;28;20459;-69
2022/08/04 04:50:52;;;;;;;2.00;1.50;;;19.10;99.90;;;;;;5060792;28;21007;-69
2022/08/04 04:53:29;;;;;;;1.90;1.53;;;19.10;99.90;;;;;;5065719;28;20454;-68
2022/08/04 04:56:06;;;;;;;2.53;1.83;;;19.00;99.90;;;;;;5063944;28;20445;-70
2022/08/04 04:58:38;;;;;;;2.73;2.03;;;19.00;99.90;;;;;;5074017;28;20454;-70
2022/08/04 05:01:32;;;;;;;1.37;1.17;;;18.90;99.90;;;;;;5064883;28;20423;-68
2022/08/04 05:04:22;;;;;;;1.73;1.50;;;18.90;99.90;;;;;;5069385;28;20804;-71
2022/08/04 05:07:19;;;;;;;2.47;1.83;;;18.80;99.90;;;;;;5061689;28;20441;-69
2022/08/04 05:10:03;;;;;;;1.53;1.30;;;18.70;99.90;;;;;;5065872;28;20428;-68
2022/08/04 05:12:53;;;;;;;2.20;1.90;;;18.60;99.90;;;;;;5069324;28;20427;-69
2022/08/04 05:15:47;;;;;;;2.20;1.83;;;18.50;99.90;;;;;;5067310;28;20499;-67
2022/08/04 05:18:23;;;;;;;3.20;1.90;;;18.40;99.90;;;;;;5079185;28;20476;-68
2022/08/04 05:20:58;;;;;;;1.87;1.50;;;18.30;99.90;;;;;;5069772;28;20441;-67
2022/08/04 05:23:31;;;;;;;1.90;1.80;;;18.30;99.90;;;;;;5067217;28;20442;-69
2022/08/04 05:26:08;;;;;;;1.70;1.60;;;18.20;99.90;;;;;;5076186;28;20454;-67
2022/08/04 05:28:43;;;;;;;2.17;1.97;;;18.20;99.90;;;;;;5065378;28;20466;-68
2022/08/04 05:31:21;;;;;;;2.00;1.33;;;18.20;99.90;;;;;;5074964;28;20429;-67
2022/08/04 05:33:56;;;;;;;3.10;1.87;;;18.20;99.90;;;;;;5074575;28;20476;-68
2022/08/04 05:36:34;;;;;;;2.40;1.57;;;18.20;99.90;;;;;;5063195;28;20460;-67
2022/08/04 05:39:16;;;;;;;2.90;1.73;;;18.10;99.90;;;;;;5048221;28;20438;-67
2022/08/04 05:41:47;;;;;;;2.03;1.53;;;18.10;99.90;;;;;;5064100;28;20435;-67
2022/08/04 05:44:29;;;;;;;1.70;1.40;;;18.00;99.90;;;;;;5064089;28;20776;-66
2022/08/04 05:47:01;;;;;;;1.80;1.60;;;17.90;99.90;;;;;;5080219;28;20843;-67
2022/08/04 05:49:33;;;;;;;1.70;1.60;;;17.90;99.90;;;;;;5064930;28;20453;-66
2022/08/04 05:52:05;;;;;;;1.60;1.50;;;18.00;99.90;;;;;;5064961;28;20484;-66
2022/08/04 05:54:38;;;;;;;2.00;1.57;;;17.80;99.90;;;;;;5075330;28;20462;-66
2022/08/04 05:57:10;;;;;;;1.77;1.40;;;17.80;99.90;;;;;;5080512;28;20499;-66
2022/08/04 05:59:46;;;;;;;1.87;1.40;;;17.70;99.90;;;;;;5070108;28;20480;-66
2022/08/04 06:02:18;;;;;;;1.30;1.20;;;17.70;99.90;;;;;;5082818;28;20502;-67
2022/08/04 06:04:51;;;;;;;1.50;1.20;;;17.70;99.90;;;;;;5083705;28;20511;-67
2022/08/04 06:07:25;;;;;;;1.60;1.50;;;17.60;99.90;;;;;;5049582;28;20427;-66
2022/08/04 06:09:56;;;;;;;2.10;1.63;;;17.60;99.90;;;;;;5070110;28;20451;-66
2022/08/04 06:12:33;;;;;;;1.50;1.40;;;17.60;99.90;;;;;;5066701;28;20812;-66
2022/08/04 06:15:09;;;;;;;1.20;1.10;;;17.50;99.90;;;;;;5065496;28;20430;-66
2022/08/04 06:17:43;;;;;;;2.00;1.47;;;17.50;99.90;;;;;;5075544;28;20517;-66
2022/08/04 06:20:36;;;;;;;1.60;1.50;;;17.50;99.90;;;;;;5057955;28;20448;-65
2022/08/04 06:23:19;;;;;;;1.30;1.20;;;17.60;99.90;;;;;;5063597;28;20418;-66
2022/08/04 06:25:54;;;;;;;1.43;1.13;;;17.50;99.90;;;;;;5071605;28;20444;-66
2022/08/04 06:28:27;;;;;;;1.37;1.20;;;17.50;99.90;;;;;;5069704;28;20452;-66
2022/08/04 06:31:04;;;;;;;1.57;1.40;;;17.50;99.90;;;;;;5062467;28;20497;-66
2022/08/04 06:33:55;;;;;;;1.63;1.27;;;17.50;99.90;;;;;;5062385;28;20444;-66
2022/08/04 06:36:26;;;;;;;2.00;1.07;;;17.50;99.90;;;;;;5062060;28;20481;-66
2022/08/04 06:38:58;;;;;;;1.43;1.23;;;17.60;99.90;;;;;;5062636;28;20511;-66
2022/08/04 06:41:31;;;;;;;1.13;1.03;;;17.60;99.90;;;;;;5066084;28;20437;-66
2022/08/04 06:44:03;;;;;;;1.70;1.10;;;17.60;99.90;;;;;;5068945;28;20467;-66
2022/08/04 06:46:38;;;;;;;1.17;1.00;;;17.70;99.90;;;;;;5062120;28;20470;-66
2022/08/04 06:49:10;;;;;;;2.80;1.30;;;17.70;99.90;;;;;;5062030;28;20505;-66
2022/08/04 06:51:42;;;;;;;2.60;1.50;;;17.80;99.90;;;;;;5067603;28;20547;-66
2022/08/04 06:54:18;;;;;;;1.10;1.00;;;17.80;99.90;;;;;;5065768;28;20472;-67
2022/08/04 06:56:50;;;;;;;1.20;1.00;;;17.80;99.90;;;;;;5064648;28;20494;-66
2022/08/04 06:59:22;;;;;;;1.47;1.23;;;17.90;99.90;;;;;;5068284;28;20505;-65
2022/08/04 07:01:56;;;;;;;1.17;0.90;;;18.00;99.90;;;;;;5065365;28;20450;-66
2022/08/04 07:04:28;;;;;;;1.50;1.20;;;17.90;99.90;;;;;;5072674;28;20441;-66
2022/08/04 07:06:59;;;;;;;1.23;1.00;;;18.00;99.90;;;;;;5063207;28;20475;-66
2022/08/04 07:09:31;;;;;;;1.13;1.03;;;18.10;99.90;;;;;;5077302;28;20430;-65
2022/08/04 07:12:02;;;;;;;1.00;0.90;;;18.10;99.90;;;;;;5059243;28;20954;-66
2022/08/04 07:14:35;;;;;;;1.40;0.83;;;18.10;99.90;;;;;;5064946;28;20467;-66
2022/08/04 07:17:09;;;;;;;0.97;0.80;;;18.00;99.90;;;;;;5062743;28;20434;-67
2022/08/04 07:19:40;;;;;;;1.30;1.07;;;18.00;99.90;;;;;;5061302;28;20600;-66
2022/08/04 07:22:11;;;;;;;1.13;1.03;;;18.00;99.90;;;;;;5060340;28;20463;-66
2022/08/04 07:24:57;;;;;;;2.63;0.90;;;18.00;99.90;;;;;;5065562;28;20532;-67
2022/08/04 07:27:30;;;;;;;1.10;0.73;;;18.00;99.90;;;;;;5065875;28;20456;-66
2022/08/04 07:30:19;;;;;;;4.00;0.80;;;17.90;99.90;;;;;;5063850;28;20468;-67
2022/08/04 07:32:56;;;;;;;1.20;0.90;;;17.90;99.90;;;;;;5065540;28;20430;-66
2022/08/04 07:35:29;;;;;;;0.97;0.83;;;18.00;99.90;;;;;;5073729;28;20475;-66
2022/08/04 07:38:19;;;;;;;1.33;0.73;;;18.10;99.90;;;;;;5061363;28;20487;-66
2022/08/04 07:40:56;;;;;;;1.13;1.00;;;18.00;99.90;;;;;;5060941;28;20459;-67
2022/08/04 07:43:28;;;;;;;1.77;0.97;;;18.00;99.90;;;;;;5064269;28;20463;-67
2022/08/04 07:45:59;;;;;;;0.93;0.90;;;18.10;99.90;;;;;;5062730;28;21010;-67
2022/08/04 07:48:31;;;;;;;0.87;0.87;;;18.00;99.90;;;;;;5062060;28;20920;-67
2022/08/04 07:51:03;;;;;;;0.97;0.70;;;18.00;99.90;;;;;;5062240;28;20537;-67
2022/08/04 07:53:35;;;;;;;1.30;1.20;;;18.10;99.90;;;;;;5066891;28;20943;-67
2022/08/04 07:56:25;;;;;;;1.87;1.27;;;18.00;99.90;;;;;;5070171;28;20448;-66
2022/08/04 07:58:56;;;;;;;1.00;0.80;;;18.00;99.90;;;;;;5067396;28;20486;-67
2022/08/04 08:01:28;;;;;;;1.63;0.90;;;18.10;99.90;;;;;;5058410;28;20466;-67
2022/08/04 08:04:00;;;;;;;0.80;0.80;;;18.00;99.90;;;;;;5080575;28;20444;-66
2022/08/04 08:06:31;;;;;;;2.30;1.13;;;18.10;99.90;;;;;;5072298;28;20472;-67
2022/08/04 08:09:09;;;;;;;1.00;0.77;;;18.00;99.90;;;;;;5063753;28;20435;-67
2022/08/04 08:11:44;;;;;;;1.03;1.00;;;18.10;99.90;;;;;;5063134;28;20454;-67
2022/08/04 08:14:35;;;;;;;1.03;0.70;;;18.00;99.90;;;;;;5068664;28;20496;-67
2022/08/04 08:17:07;;;;;;;0.87;0.70;;;18.00;99.90;;;;;;5064705;28;20447;-67
2022/08/04 08:19:39;;;;;;;1.10;1.00;;;18.00;99.90;;;;;;5063879;28;20480;-66
2022/08/04 08:22:12;;;;;;;1.30;1.07;;;17.90;99.90;;;;;;5060598;28;20538;-67
2022/08/04 08:24:43;;;;;;;1.47;0.90;;;18.00;99.90;;;;;;5056194;28;20442;-66
2022/08/04 08:27:14;;;;;;;1.00;0.80;;;18.00;99.90;;;;;;5065448;28;20430;-67
2022/08/04 08:29:46;;;;;;;1.10;1.10;;;18.10;99.90;;;;;;5063326;28;20435;-66
2022/08/04 08:32:17;;;;;;;1.07;0.80;;;18.10;99.90;;;;;;5064238;28;20450;-66
2022/08/04 08:34:50;;;;;;;1.20;1.10;;;18.10;99.90;;;;;;5062441;28;20435;-66
2022/08/04 08:37:26;;;;;;;1.03;0.90;;;18.10;99.90;;;;;;5060220;28;20419;-66
2022/08/04 08:40:09;;;;;;;0.60;0.53;;;18.10;99.90;;;;;;5077035;28;20472;-66
2022/08/04 08:43:00;;;;;;;1.60;1.07;;;18.10;99.90;;;;;;5067495;28;20430;-67
2022/08/04 08:46:14;;;;;;;1.10;0.90;;;18.10;99.90;;;;;;5067894;28;20473;-66
2022/08/04 08:49:09;;;;;;;1.73;1.10;;;18.10;99.90;;;;;;5063924;28;20536;-66
2022/08/04 08:52:16;;;;;;;0.90;0.60;;;18.00;99.90;;;;;;5048928;28;20525;-67
2022/08/04 08:55:31;;;;;;;1.20;1.10;;;18.00;99.90;;;;;;5061143;28;20434;-66
2022/08/04 08:58:24;;;;;;;0.97;0.87;;;18.10;99.90;;;;;;5053373;28;20469;-67
2022/08/04 09:01:04;;;;;;;1.60;1.17;;;18.10;99.90;;;;;;5067096;28;20470;-67
2022/08/04 09:04:06;;;;;;;2.13;1.00;;;18.00;99.90;;;;;;5057393;28;20639;-67
2022/08/04 09:06:55;;;;;;;1.20;1.00;;;18.00;99.90;;;;;;5063179;28;20507;-67
2022/08/04 09:10:00;;;;;;;1.03;0.80;;;18.10;99.90;;;;;;5069913;28;20471;-66
2022/08/04 09:12:40;;;;;;;1.20;0.90;;;18.10;99.90;;;;;;5071621;28;20446;-67
2022/08/04 09:15:16;;;;;;;1.33;0.87;;;18.00;99.90;;;;;;5064365;28;20443;-66
2022/08/04 09:17:52;;;;;;;1.90;1.23;;;18.00;99.90;;;;;;5065023;28;20472;-67
2022/08/04 09:20:33;;;;;;;0.93;0.87;;;18.00;99.90;;;;;;5064863;28;20488;-67
2022/08/04 09:23:27;;;;;;;1.07;0.97;;;18.00;99.90;;;;;;5069291;28;20467;-67
2022/08/04 09:26:06;;;;;;;1.33;1.23;;;17.80;99.90;;;;;;5061886;28;20451;-67
2022/08/04 09:28:48;;;;;;;0.77;0.60;;;17.90;99.90;;;;;;5065715;28;20786;-67
2022/08/04 09:31:32;;;;;;;0.80;0.70;;;17.90;99.90;;;;;;5064553;28;20427;-67
2022/08/04 09:34:35;;;;;;;1.20;1.10;;;17.90;99.90;;;;;;5068331;28;20456;-67
2022/08/04 09:37:17;;;;;;;0.60;0.60;;;17.90;99.90;;;;;;5061341;28;20456;-67
2022/08/04 09:39:57;;;;;;;0.87;0.73;;;17.80;99.90;;;;;;5071386;28;20492;-67
2022/08/04 09:42:39;;;;;;;1.20;1.10;;;17.80;99.90;;;;;;5066481;28;20484;-67
2022/08/04 09:45:17;;;;;;;0.70;0.70;;;17.80;99.90;;;;;;5063361;28;20438;-67
2022/08/04 09:48:00;;;;;;;1.20;0.67;;;17.90;99.90;;;;;;5069660;28;20555;-67
2022/08/04 09:50:38;;;;;;;1.10;1.00;;;17.80;99.90;;;;;;5067446;28;20430;-67
2022/08/04 09:53:31;;;;;;;1.07;0.90;;;17.80;99.90;;;;;;5065845;28;20431;-67
2022/08/04 09:56:15;;;;;;;1.20;0.90;;;17.80;99.90;;;;;;5060184;28;20855;-67
2022/08/04 09:58:54;;;;;;;1.70;0.77;;;17.80;99.90;;;;;;5060999;28;20450;-67
2022/08/04 10:01:29;;;;;;;0.60;0.53;;;17.80;99.90;;;;;;5067822;28;20430;-66
2022/08/04 10:04:03;;;;;;;1.20;1.10;;;17.80;99.90;;;;;;5068433;28;20463;-67
2022/08/04 10:07:15;;;;;;;1.07;0.80;;;17.80;99.90;;;;;;5061148;28;20951;-67
2022/08/04 10:10:02;;;;;;;1.33;0.67;;;17.80;99.90;;;;;;5036020;28;20475;-66
2022/08/04 10:12:42;;;;;;;0.90;0.80;;;17.80;99.90;;;;;;5039753;28;20457;-67
2022/08/04 10:15:21;;;;;;;1.23;1.13;;;17.80;99.90;;;;;;5039900;28;20439;-67
2022/08/04 10:18:11;;;;;;;0.60;0.50;;;17.70;99.90;;;;;;5040287;28;20451;-67
2022/08/04 10:20:51;;;;;;;0.93;0.70;;;17.70;99.90;;;;;;5032258;28;20618;-67
2022/08/04 10:23:47;;;;;;;1.00;0.70;;;17.60;99.90;;;;;;5038358;28;20457;-66
2022/08/04 10:26:43;;;;;;;0.87;0.87;;;17.60;99.90;;;;;;5040379;28;20968;-66
2022/08/04 10:29:20;;;;;;;1.10;1.00;;;17.50;99.90;;;;;;5039684;28;20432;-66
2022/08/04 10:31:59;;;;;;;0.90;0.80;;;17.50;99.90;;;;;;5039560;28;20835;-67
2022/08/04 10:34:37;;;;;;;0.80;0.77;;;17.50;99.90;;;;;;5038304;28;20956;-67
2022/08/04 10:37:17;;;;;;;0.70;0.70;;;17.40;99.90;;;;;;5036067;28;20469;-66
2022/08/04 10:42:58;;;;;;;1.23;0.57;;;17.30;99.90;;;;;;5067220;28;20453;-67
2022/08/04 10:45:40;;;;;;;1.93;0.90;;;17.20;99.90;;;;;;5062695;28;20816;-67
2022/08/04 10:48:21;;;;;;;0.90;0.80;;;17.30;99.90;;;;;;5059546;28;20453;-67
2022/08/04 10:51:11;;;;;;;0.80;0.63;;;17.30;99.90;;;;;;5058629;28;20443;-67
2022/08/04 10:53:42;;;;;;;1.23;1.13;;;17.30;99.90;;;;;;5062746;28;20460;-66
2022/08/04 10:56:18;;;;;;;0.73;0.70;;;17.20;99.90;;;;;;5061584;28;20483;-67
2022/08/04 10:58:55;;;;;;;1.17;0.90;;;17.10;99.90;;;;;;5069279;28;20487;-66
2022/08/04 11:01:30;;;;;;;1.27;0.87;;;17.00;99.90;;;;;;5058583;28;20803;-66
2022/08/04 11:04:32;;;;;;;0.70;0.70;;;17.00;99.90;;;;;;5065512;28;20423;-67
2022/08/04 11:07:03;;;;;;;0.93;0.83;;;16.90;99.90;;;;;;5078130;28;20886;-66
2022/08/04 11:09:36;;;;;;;2.40;0.90;;;16.90;99.90;;;;;;5072310;28;20471;-67
2022/08/04 11:12:11;;;;;;;0.70;0.70;;;16.90;99.90;;;;;;5075261;28;20464;-66
2022/08/04 11:14:50;;;;;;;1.37;0.97;;;17.00;99.90;;;;;;5059901;28;20486;-66
2022/08/04 11:17:26;;;;;;;0.60;0.50;;;17.00;99.90;;;;;;5074898;28;20571;-67
2022/08/04 11:20:05;;;;;;;0.67;0.60;;;17.10;99.90;;;;;;5061343;28;20503;-67
2022/08/04 11:23:06;;;;;;;1.73;1.00;;;17.10;99.90;;;;;;5059971;28;20439;-67
2022/08/04 11:25:49;;;;;;;1.13;0.80;;;17.10;99.90;;;;;;5053425;28;20472;-67
2022/08/04 11:28:29;;;;;;;0.90;0.70;;;17.20;99.90;;;;;;5058366;28;20498;-67
2022/08/04 11:31:06;;;;;;;1.57;1.30;;;17.20;99.90;;;;;;5062404;28;20496;-67
2022/08/04 11:33:44;;;;;;;0.70;0.70;;;17.20;99.90;;;;;;5073842;28;20452;-67
2022/08/04 11:36:23;;;;;;;1.20;0.97;;;17.20;99.90;;;;;;5061404;28;20475;-66
2022/08/04 11:39:07;;;;;;;1.43;0.67;;;17.20;99.90;;;;;;5058513;28;20461;-66
2022/08/04 11:41:49;;;;;;;1.60;1.00;;;17.30;99.90;;;;;;5062088;28;20523;-66
2022/08/04 11:44:27;;;;;;;1.13;0.97;;;17.30;99.90;;;;;;5062599;28;20476;-66
2022/08/04 11:47:04;;;;;;;1.03;0.90;;;17.10;99.90;;;;;;5058412;28;20467;-66
2022/08/04 11:49:40;;;;;;;2.90;1.77;;;17.10;99.90;;;;;;5062413;28;20430;-67
2022/08/04 11:52:31;;;;;;;2.87;1.97;;;17.10;99.90;;;;;;5056836;28;20467;-66
2022/08/04 11:55:06;;;;;;;2.53;2.17;;;17.10;99.90;;;;;;5048912;28;20774;-67
2022/08/04 11:57:37;;;;;;;2.07;1.87;;;17.00;99.90;;;;;;5064472;28;20459;-67
2022/08/04 12:00:11;;;;;;;2.03;1.93;;;17.00;99.90;;;;;;5061948;28;20997;-67
2022/08/04 12:03:02;;;;;;;1.90;1.80;;;17.10;99.90;;;;;;5059048;28;20454;-66
2022/08/04 12:05:35;;;;;;;3.07;2.40;;;17.10;99.90;;;;;;5056670;28;20470;-66
2022/08/04 12:08:37;;;;;;;3.10;2.40;;;17.10;99.90;;;;;;5058063;28;20447;-67
2022/08/04 12:11:22;;;;;;;2.80;2.10;;;17.10;99.90;;;;;;5068327;28;20463;-66
2022/08/04 12:14:04;;;;;;;2.20;2.00;;;17.00;99.90;;;;;;5063448;28;20475;-66
2022/08/04 12:16:53;;;;;;;3.40;2.13;;;17.00;99.90;;;;;;5063044;28;20445;-67
2022/08/04 12:19:31;;;;;;;3.50;3.20;;;17.00;99.90;;;;;;5065946;28;20434;-67
2022/08/04 12:22:24;;;;;;;3.73;2.10;;;16.90;99.90;;;;;;5063065;28;20463;-67
2022/08/04 12:25:05;;;;;;;2.00;1.87;;;17.00;99.90;;;;;;5063310;28;20883;-67
2022/08/04 12:27:41;;;;;;;3.60;2.60;;;17.00;99.90;;;;;;5063319;28;20468;-66
2022/08/04 12:30:13;;;;;;;2.40;2.00;;;17.00;99.90;;;;;;5062032;28;20468;-66
2022/08/04 12:33:11;;;;;;;2.17;1.80;;;16.90;99.90;;;;;;5077543;28;20427;-66
2022/08/04 12:35:52;;;;;;;4.67;2.40;;;16.90;99.90;;;;;;5064250;28;20802;-66
2022/08/04 12:38:47;;;;;;;2.90;2.10;;;16.90;99.90;;;;;;5068819;28;20448;-66
2022/08/04 12:41:25;;;;;;;5.70;2.40;;;16.80;99.90;;;;;;5063960;28;20496;-66
2022/08/04 12:44:04;;;;;;;3.00;2.17;;;16.80;99.90;;;;;;5066631;28;20582;-66
2022/08/04 12:46:40;;;;;;;1.87;1.70;;;16.90;99.90;;;;;;5067520;28;20473;-66
2022/08/04 12:49:12;;;;;;;2.60;2.00;;;16.80;99.90;;;;;;5069641;28;20467;-66
2022/08/04 12:51:46;;;;;;;2.30;1.70;;;16.70;99.90;;;;;;5064970;28;20811;-66
2022/08/04 12:54:42;;;;;;;2.23;2.00;;;16.70;99.90;;;;;;5073546;28;20512;-66
2022/08/04 12:57:17;;;;;;;2.73;2.17;;;16.70;99.90;;;;;;5075876;28;20456;-66
2022/08/04 12:59:49;;;;;;;2.23;1.90;;;16.70;99.90;;;;;;5065100;28;20479;-66
2022/08/04 13:02:31;;;;;;;2.33;2.13;;;16.70;99.90;;;;;;5065170;28;20602;-66
2022/08/04 13:05:06;;;;;;;3.43;2.50;;;16.70;99.90;;;;;;5069555;28;20464;-67
2022/08/04 13:07:41;;;;;;;2.30;2.03;;;16.60;99.90;;;;;;5066471;28;20928;-66
2022/08/04 13:10:14;;;;;;;3.20;2.40;;;16.60;99.90;;;;;;5068376;28;20474;-66
2022/08/04 13:12:57;;;;;;;2.30;1.97;;;16.50;99.90;;;;;;5064832;28;20483;-66
2022/08/04 13:15:29;;;;;;;2.03;1.83;;;16.60;99.90;;;;;;5066817;28;20460;-66
2022/08/04 13:18:03;;;;;;;2.87;2.13;;;16.50;99.90;;;;;;5064736;28;20968;-66
2022/08/04 13:20:45;;;;;;;2.37;2.00;;;16.50;99.90;;;;;;5063691;28;20545;-66
2022/08/04 13:23:18;;;;;;;2.40;2.20;;;16.60;99.90;;;;;;5067898;28;20483;-67
2022/08/04 13:25:53;;;;;;;1.87;1.70;;;16.60;99.90;;;;;;5066177;28;20460;-66
2022/08/04 13:28:48;;;;;;;2.80;2.60;;;16.60;99.90;;;;;;5064470;28;20464;-66
2022/08/04 13:31:22;;;;;;;2.80;2.07;;;16.70;99.90;;;;;;5068775;28;20979;-66
2022/08/04 13:33:55;;;;;;;2.40;2.20;;;16.70;99.90;;;;;;5083421;28;20432;-66
2022/08/04 13:36:27;;;;;;;2.40;1.83;;;16.60;99.90;;;;;;5077594;28;20479;-66
2022/08/04 13:39:03;;;;;;;2.70;2.20;;;16.70;99.90;;;;;;5064775;28;20434;-67
2022/08/04 13:41:34;;;;;;;2.00;1.80;;;16.90;99.90;;;;;;5064206;28;20502;-66
2022/08/04 13:44:12;;;;;;;3.40;2.47;;;17.00;99.90;;;;;;5064738;28;20428;-66
2022/08/04 13:46:52;;;;;;;2.00;1.80;;;16.90;99.90;;;;;;5064349;28;20448;-66
2022/08/04 13:49:23;;;;;;;3.33;2.40;;;16.90;99.90;;;;;;5076835;28;20787;-66
2022/08/04 13:52:14;;;;;;;2.83;2.07;;;16.90;99.90;;;;;;5083361;28;20485;-66
2022/08/04 13:54:47;;;;;;;3.60;2.23;;;16.90;99.90;;;;;;5084080;28;20443;-66
2022/08/04 13:57:32;;;;;;;2.13;1.80;;;17.00;99.90;;;;;;5078921;28;20512;-67
2022/08/04 14:00:08;;;;;;;4.90;2.23;;;17.10;99.90;;;;;;5064190;28;20447;-67
2022/08/04 14:02:44;;;;;;;2.07;1.80;;;17.20;99.90;;;;;;5064040;28;20480;-67
2022/08/04 14:05:20;;;;;;;3.57;2.33;;;17.10;99.90;;;;;;5064368;28;20466;-66
2022/08/04 14:08:01;;;;;;;2.00;1.80;;;17.00;99.90;;;;;;5062868;28;21007;-66
2022/08/04 14:10:33;;;;;;;2.63;2.33;;;17.20;99.90;;;;;;5064203;28;20542;-66
2022/08/04 14:13:07;;;;;;;2.93;2.23;;;17.20;99.90;;;;;;5064172;28;20440;-66